Pagrindinis puslapis
METAR-TAF:

METAR-TAF

Oro uostai :

Sionderborgas, Danija

platuma: 54-58N, ilguma: 009-47E, Aukštis: 7 m

Dabartinis oras

Ataskaita buvo paskelbta 27 minutes, ne 09:20 UTC
Vėjas 8 kt iš Vakarų/Šiaurės Vakarų, svyruoja nuo Vakarų/Pietvakarių ir Šiaurės/Šiaurės Vakarų
Temperatūra 15°C
Drėgmė 82%
Slėgis 1027 hPa
Matomumas: 4000 m
Išsisklaidę debesys ne aukštis 800 ft
Su prošvaistėmis ne aukštis 1500 ft
dulksna

METAR: EKSB 200920Z 29008KT 240V340 4000 -DZ SCT008 BKN015 15/12 Q1027

Laikas: 11:47 (09:47 UTC)

Prognozė

Ataskaita buvo paskelbta 55 minutes, ne 08:52 UTC
Prognozė galioja nuo 20 metu 09 UTC su 20 metu 18 UTC
Vėjas 8 kt iš Vakarų
Matomumas 10 km arba daugiau
Mažai debesys ne aukštis 1000 ft
Su prošvaistėmis ne aukštis 2500 ft
Laikinai
nuo 20 metu 09 UTC su 20 metu 12 UTC
Matomumas: 4000 m
Su prošvaistėmis ne aukštis 800 ft
lietus, dulksna, rūkana

TAF: EKSB 200852Z 2009/2018 27008KT 9999 FEW010 BKN025 TEMPO 2009/2012 4000 -RADZ BR BKN008

Orai ataskaitas ir orų prognozės (METAR, TAF).

turimą stotys yra geltonos ir raudonos taškus žemėlapyje.

Perkelti pele per norėdami pamatyti stoties vardą.

Tada spustelėkite, norėdami matyti oro stebėjimo ir prognozės.

Norėdami pakeisti žemėlapį: spustelėkite ant žalios mygtukų su juodo kryžiaus žemyn,; žalią mygtuką su brūkšneliu, jei norite nutolinti; arba žalių rodyklių gretimoms žemėlapius.


METAR-TAF: